Latest Weather Observations for Legendre Island

IDW60801

Issued at 4:33 pm WST Friday 20 October 2017 (issued every 30 minutes, with the page automatically refreshed every 10 minutes)

About weather observations | Map of weather stations | Latest weather observations for WA | Other Formats
Station Details ID: 004095 Name: LEGENDRE ISLAND Lat: -20.36 Lon: 116.84 Height: 29.0 m
Data from the previous 72 hours. | See also: Recent months at Legendre Island
Date/Time
WST
Temp
°C
App
Temp
°C
Dew
Point
°C
Rel
Hum
%
Delta-T
°C
Wind Press
QNH
hPa
Press
MSL
hPa
Rain since
9am
mm
Dir  Spd
km/h
Gust
km/h
Spd
kts
Gust
kts
20/04:30pm 31.2 28.5 15.6 39 9.7 W 24 28 13 15 1010.1 1010.0 -
20/04:00pm 32.8 29.7 13.4 30 11.7 W 22 28 12 15 1010.1 1010.0 -
20/03:30pm 32.9 30.4 14.0 32 11.5 W 20 24 11 13 1010.5 1010.4 -
20/03:00pm 34.0 31.0 11.8 26 13.2 W 19 20 10 11 1010.7 1010.6 -
20/02:30pm 34.9 32.3 9.3 21 14.7 WNW 13 17 7 9 1011.1 1011.0 -
20/02:00pm 33.6 32.7 12.6 28 12.6 NNW 9 13 5 7 1011.5 1011.4 -
20/01:30pm 30.7 31.1 16.3 42 9.0 N 9 11 5 6 1011.9 1011.8 -
20/01:00pm 31.7 31.9 14.8 36 10.4 NE 7 9 4 5 1012.4 1012.3 -
20/12:30pm 30.9 31.3 15.3 38 9.6 ENE 7 9 4 5 1012.8 1012.7 -
20/12:00pm 30.6 31.5 16.6 43 8.8 E 7 9 4 5 1013.3 1013.2 -
20/11:30am 30.3 31.5 17.4 46 8.2 E 7 11 4 6 1013.7 1013.6 -
20/11:00am 30.5 30.0 16.9 44 8.6 ESE 15 19 8 10 1013.9 1013.8 -
20/10:30am 31.3 30.0 16.9 42 9.1 ESE 19 20 10 11 1013.9 1013.8 -
20/10:00am 30.9 29.0 15.7 39 9.4 ESE 20 24 11 13 1014.0 1013.9 -
20/09:30am 30.3 28.7 16.0 42 8.9 ESE 19 24 10 13 1014.3 1014.2 -
20/09:00am 29.7 25.8 14.3 39 9.3 ESE 28 33 15 18 1014.3 1014.2 -
20/08:30am 30.1 25.0 13.0 35 10.2 ESE 32 41 17 22 1014.2 1014.1 -
20/08:00am 30.7 25.2 9.0 26 12.1 SE 28 35 15 19 1014.1 1014.0 -
20/07:30am 30.2 25.5 9.1 27 11.8 SE 24 32 13 17 1013.8 1013.7 -
20/07:00am 28.0 24.3 11.5 35 9.5 SSE 22 32 12 17 1013.5 1013.4 -
20/06:30am 26.0 23.0 12.1 42 8.0 S 19 24 10 13 1013.2 1013.1 -
20/06:00am 24.1 21.2 15.1 57 5.4 SSW 24 26 13 14 1012.4 1012.3 -
20/05:30am 23.4 21.3 15.2 60 4.9 SSW 20 22 11 12 1012.3 1012.2 -
20/05:00am 23.9 20.7 11.3 45 7.1 SSW 19 24 10 13 1012.2 1012.1 -
20/04:30am 23.7 21.0 13.6 53 5.9 SSW 20 22 11 12 1012.0 1011.9 -
20/04:00am 23.7 22.3 16.5 64 4.4 S 19 22 10 12 1012.1 1012.0 -
20/03:30am 23.8 22.4 17.1 66 4.1 SSW 20 24 11 13 1012.1 1012.0 -
20/03:00am 23.8 23.3 18.7 73 3.2 SSW 19 20 10 11 1011.9 1011.8 -
20/02:30am 24.6 23.0 18.3 68 4.0 SW 24 28 13 15 1011.5 1011.4 -
20/02:00am 24.3 22.8 18.5 70 3.7 SW 24 28 13 15 1011.6 1011.5 -
20/01:30am 24.3 22.6 18.9 72 3.4 SW 26 30 14 16 1011.8 1011.7 -
20/01:00am 24.0 23.1 19.9 78 2.6 SW 24 30 13 16 1011.9 1011.8 -
20/12:30am 23.8 23.4 20.9 84 1.9 SW 24 28 13 15 1012.1 1012.0 -
20/12:00am 23.8 24.0 22.1 90 1.1 SW 24 30 13 16 1012.4 1012.3 -
 
Date/Time
WST
Temp
°C
App
Temp
°C
Dew
Point
°C
Rel
Hum
%
Delta-T
°C
Wind Press
QNH
hPa
Press
MSL
hPa
Rain since
9am
mm
Dir  Spd
km/h
Gust
km/h
Spd
kts
Gust
kts
19/11:30pm 23.8 24.7 22.6 93 0.8 SW 22 26 12 14 1012.5 1012.4 -
19/11:00pm 23.9 25.2 22.7 93 0.8 WSW 20 24 11 13 1012.7 1012.6 -
19/10:30pm 24.0 24.9 22.6 92 0.9 SW 22 24 12 13 1013.0 1012.9 -
19/10:00pm 24.0 25.1 22.4 91 1.1 SW 20 22 11 12 1013.1 1013.0 -
19/09:30pm 24.1 25.6 22.7 92 0.9 SW 19 22 10 12 1013.0 1012.9 -
19/09:00pm 24.1 26.0 22.7 92 0.9 SW 17 20 9 11 1012.8 1012.7 -
19/08:30pm 24.3 25.7 21.8 86 1.7 WSW 17 20 9 11 1012.5 1012.4 -
19/08:00pm 24.9 25.8 20.8 78 2.7 W 17 20 9 11 1012.3 1012.2 -
19/07:30pm 25.6 26.4 20.6 74 3.3 WNW 17 20 9 11 1012.0 1011.9 -
19/07:00pm 25.9 25.1 19.3 67 4.3 WNW 22 26 12 14 1011.3 1011.2 -
19/06:30pm 26.3 25.5 18.4 61 5.0 WNW 20 24 11 13 1011.0 1010.9 -
19/06:00pm 27.2 25.9 16.8 53 6.5 WNW 19 24 10 13 1010.8 1010.7 -
19/05:30pm 28.5 27.4 15.4 45 8.0 WNW 15 20 8 11 1010.5 1010.4 -
19/05:00pm 29.5 28.7 16.0 44 8.4 WNW 15 19 8 10 1010.4 1010.3 -
19/04:30pm 29.5 28.0 14.1 39 9.3 NW 15 19 8 10 1010.5 1010.4 -
19/04:00pm 30.5 29.0 14.2 37 9.9 NW 15 19 8 10 1010.5 1010.4 -
19/03:30pm 31.7 29.9 12.0 30 11.6 NNW 13 15 7 8 1010.5 1010.4 -
19/03:00pm 30.1 29.9 14.6 39 9.4 N 9 11 5 6 1010.4 1010.3 -
19/02:30pm 29.6 28.5 12.1 34 10.2 N 9 9 5 5 1010.5 1010.4 -
19/02:00pm 30.8 31.3 15.6 39 9.4 NNE 7 9 4 5 1010.7 1010.6 -
19/01:30pm 30.8 30.5 14.4 36 10.0 NE 9 11 5 6 1010.9 1010.8 -
19/01:00pm 30.1 30.2 17.5 46 8.0 NE 13 15 7 8 1011.1 1011.0 -
19/12:30pm 29.6 29.1 16.8 46 8.0 ENE 15 17 8 9 1011.4 1011.3 -
19/12:00pm 30.0 29.1 16.8 45 8.3 E 17 17 9 9 1011.8 1011.7 -
19/11:30am 30.0 28.4 16.4 44 8.5 E 20 22 11 12 1012.0 1011.9 -
19/11:00am 30.0 28.0 16.4 44 8.5 ESE 22 24 12 13 1012.2 1012.1 -
19/10:30am 29.7 27.0 16.5 45 8.3 ESE 26 30 14 16 1012.2 1012.1 -
19/10:00am 29.6 26.4 15.3 41 8.8 ESE 26 30 14 16 1012.2 1012.1 -
19/09:30am 29.9 26.3 15.2 41 9.0 ESE 28 33 15 18 1012.4 1012.3 -
19/09:00am 28.7 24.5 13.4 39 9.1 ESE 28 35 15 19 1012.2 1012.1 -
19/08:30am 28.5 24.3 14.7 43 8.4 ESE 30 35 16 19 1012.2 1012.1 -
19/08:00am 28.6 23.9 14.4 41 8.6 ESE 32 37 17 20 1011.9 1011.8 -
19/07:30am 27.8 23.1 14.4 43 8.1 ESE 32 37 17 20 1011.4 1011.3 -
19/07:00am 26.9 23.2 15.0 48 7.2 ESE 28 33 15 18 1011.1 1011.0 -
19/06:30am 26.0 23.6 18.2 62 4.9 ESE 28 35 15 19 1010.7 1010.6 -
19/06:00am 23.7 23.6 20.0 80 2.4 ESE 20 28 11 15 1010.4 1010.3 -
19/05:30am 22.9 23.2 19.7 82 2.1 ESE 17 17 9 9 1010.2 1010.1 -
19/05:00am 22.8 23.5 18.8 78 2.5 ESE 13 15 7 8 1010.1 1010.0 -
19/04:30am 22.4 24.5 20.9 91 1.0 SE 11 13 6 7 1009.8 1009.7 -
19/04:00am 22.6 25.6 22.6 100 0.0 SSE 11 13 6 7 1009.6 1009.5 -
19/03:30am 22.4 25.3 22.4 100 0.0 SSW 11 13 6 7 1009.3 1009.2 -
19/03:00am 22.3 25.0 22.1 99 0.1 SW 11 13 6 7 1009.4 1009.3 -
19/02:30am 22.3 24.9 22.0 98 0.2 WSW 11 15 6 8 1009.4 1009.3 -
19/02:00am 22.7 24.0 22.4 98 0.2 WSW 19 20 10 11 1009.2 1009.1 -
19/01:30am 22.8 23.9 22.3 97 0.3 SW 20 24 11 13 1009.3 1009.2 -
19/01:00am 22.9 24.1 22.1 95 0.5 WSW 19 20 10 11 1009.7 1009.6 -
19/12:30am 23.0 23.9 22.0 94 0.7 WSW 20 22 11 12 1009.9 1009.8 -
19/12:00am 22.9 23.7 21.4 91 1.0 WSW 19 20 10 11 1010.3 1010.2 -
 
Date/Time
WST
Temp
°C
App
Temp
°C
Dew
Point
°C
Rel
Hum
%
Delta-T
°C
Wind Press
QNH
hPa
Press
MSL
hPa
Rain since
9am
mm
Dir  Spd
km/h
Gust
km/h
Spd
kts
Gust
kts
18/11:30pm 23.3 23.5 21.4 89 1.3 WSW 22 24 12 13 1010.6 1010.5 -
18/11:00pm 23.1 23.4 20.8 87 1.5 WSW 20 24 11 13 1011.0 1010.9 -
18/10:30pm 23.1 23.6 20.8 87 1.5 WSW 19 22 10 12 1011.2 1011.1 -
18/10:00pm 23.4 24.0 21.3 88 1.4 WSW 20 24 11 13 1011.3 1011.2 -
18/09:30pm 23.4 22.6 20.9 86 1.6 WSW 26 32 14 17 1011.2 1011.1 -
18/09:00pm 23.5 22.2 20.6 84 1.9 WSW 28 32 15 17 1011.3 1011.2 -
18/08:30pm 23.6 21.9 20.5 83 2.0 WSW 30 35 16 19 1011.1 1011.0 -
18/08:00pm 23.7 22.5 20.0 80 2.4 W 26 33 14 18 1011.0 1010.9 -
18/07:30pm 23.9 22.5 19.6 77 2.8 W 26 32 14 17 1010.8 1010.7 -
18/07:00pm 24.2 21.7 18.8 72 3.4 W 30 33 16 18 1010.4 1010.3 -
18/06:30pm 24.4 21.6 17.4 65 4.4 W 28 33 15 18 1010.3 1010.2 -
18/06:00pm 25.1 22.3 17.3 62 4.9 WSW 28 33 15 18 1010.0 1009.9 -
18/05:30pm 26.1 23.6 17.2 58 5.6 W 26 32 14 17 1009.6 1009.5 -
18/05:00pm 26.6 25.4 18.5 61 5.2 W 22 28 12 15 1009.3 1009.2 -
18/04:30pm 26.5 25.1 18.9 63 4.9 W 24 28 13 15 1009.2 1009.1 -
18/04:00pm 26.8 25.3 18.6 60 5.2 W 24 30 13 16 1009.3 1009.2 -
18/03:30pm 27.3 25.6 18.0 56 5.9 W 24 28 13 15 1009.2 1009.1 -
18/03:00pm 27.7 25.5 17.8 54 6.3 W 26 32 14 17 1009.5 1009.4 -
18/02:30pm 27.5 24.4 17.4 54 6.4 W 30 35 16 19 1009.8 1009.7 -
18/02:00pm 27.7 24.4 16.9 51 6.8 W 30 33 16 18 1010.1 1010.0 -
18/01:30pm 28.9 25.5 16.8 48 7.6 W 30 35 16 19 1010.3 1010.2 -
18/01:00pm 28.1 25.3 17.3 52 6.8 W 28 33 15 18 1010.7 1010.6 -
18/12:30pm 28.7 26.5 16.9 48 7.4 W 24 30 13 16 1010.9 1010.8 -
18/12:00pm 29.2 26.5 15.7 44 8.3 WSW 24 28 13 15 1011.2 1011.1 -
18/11:30am 28.4 25.8 15.0 44 8.2 WSW 22 30 12 16 1011.6 1011.5 -
18/11:00am 28.8 25.2 13.1 38 9.3 WSW 24 28 13 15 1011.9 1011.8 -
18/10:30am 28.4 24.9 12.3 37 9.4 WSW 22 26 12 14 1012.1 1012.0 -
18/10:00am 27.4 22.9 10.2 34 9.6 SW 24 28 13 15 1012.2 1012.1 -
18/09:30am 26.8 23.2 13.2 43 8.0 SW 24 28 13 15 1012.3 1012.2 -
18/09:00am 25.4 21.2 12.3 44 7.5 SW 26 30 14 16 1012.3 1012.2 -
18/08:30am 24.4 19.5 12.4 47 6.9 SW 30 33 16 18 1012.2 1012.1 -
18/08:00am 23.8 18.5 13.1 51 6.2 SW 33 39 18 21 1011.9 1011.8 -
18/07:30am 23.3 18.3 13.5 54 5.7 SW 32 37 17 20 1011.6 1011.5 -
18/07:00am 22.7 17.8 14.3 59 4.9 SW 33 37 18 20 1011.4 1011.3 -
18/06:30am 22.0 16.8 13.4 58 5.0 SW 33 37 18 20 1011.1 1011.0 -
18/06:00am 21.4 16.5 13.6 61 4.5 SW 32 35 17 19 1010.8 1010.7 -
18/05:30am 21.3 16.1 13.5 61 4.5 SW 33 39 18 21 1010.2 1010.1 -
18/05:00am 21.3 16.2 13.7 62 4.4 SW 33 39 18 21 1009.9 1009.8 -
18/04:30am 21.4 16.4 14.1 63 4.3 SW 33 39 18 21 1009.6 1009.5 -
18/04:00am 21.6 16.2 13.8 61 4.5 SW 35 41 19 22 1009.4 1009.3 -
18/03:30am 21.8 15.6 13.7 60 4.7 SW 39 46 21 25 1009.2 1009.1 -
18/03:00am 21.8 16.2 14.4 63 4.3 SW 37 48 20 26 1009.0 1008.9 -
18/02:30am 21.9 15.7 15.0 65 4.1 SW 41 50 22 27 1009.0 1008.9 -
18/02:00am 22.2 16.1 15.1 64 4.2 SW 41 50 22 27 1009.2 1009.1 -
18/01:30am 22.5 16.0 15.1 63 4.4 SW 43 50 23 27 1009.3 1009.2 -
18/01:00am 22.8 17.4 15.9 65 4.2 SW 39 46 21 25 1009.7 1009.6 -
18/12:30am 22.8 17.5 17.3 71 3.4 SW 41 50 22 27 1009.8 1009.7 -
18/12:00am 22.9 18.5 18.4 76 2.8 WSW 39 48 21 26 1010.2 1010.1 -
 
Date/Time
WST
Temp
°C
App
Temp
°C
Dew
Point
°C
Rel
Hum
%
Delta-T
°C
Wind Press
QNH
hPa
Press
MSL
hPa
Rain since
9am
mm
Dir  Spd
km/h
Gust
km/h
Spd
kts
Gust
kts
17/11:30pm 23.2 18.1 18.5 75 3.0 WSW 43 54 23 29 1010.3 1010.2 -
17/11:00pm 23.2 18.1 18.7 76 2.8 WSW 43 52 23 28 1010.5 1010.4 -
17/10:30pm 23.3 17.7 18.8 76 2.9 WSW 46 56 25 30 1010.5 1010.4 -
17/10:00pm 23.3 18.4 19.0 77 2.7 WSW 43 56 23 30 1010.9 1010.8 -
17/09:30pm 23.0 17.7 18.5 76 2.8 WSW 44 54 24 29 1010.8 1010.7 -
17/09:00pm 23.1 17.7 18.4 75 3.0 WSW 44 54 24 29 1010.4 1010.3 -
17/08:30pm 23.1 17.7 18.0 73 3.2 WSW 43 56 23 30 1010.2 1010.1 -
17/08:00pm 23.2 17.0 17.4 70 3.6 WSW 46 56 25 30 1010.1 1010.0 -
17/07:30pm 23.2 17.6 17.4 70 3.6 WSW 43 56 23 30 1009.8 1009.7 -
17/07:00pm 23.3 16.9 16.8 67 4.0 WSW 46 54 25 29 1009.3 1009.2 -
17/06:30pm 23.4 16.8 16.4 64 4.3 WSW 46 56 25 30 1008.9 1008.8 -
17/06:00pm 23.7 17.4 16.2 63 4.6 WSW 44 54 24 29 1008.7 1008.6 -
17/05:30pm 23.9 17.9 16.4 63 4.6 WSW 43 54 23 29 1008.5 1008.4 -
17/05:00pm 24.2 16.9 15.4 58 5.3 WSW 48 56 26 30 1008.2 1008.1 -

Other Formats:

Comma delimited format used in spreadsheet applications
http://www.bom.gov.au/fwo/IDW60801/IDW60801.94307.axf

JavaScript Object Notation format (JSON) in row-major order
http://www.bom.gov.au/fwo/IDW60801/IDW60801.94307.json